sensor_id;sensor_type;location;lat;lon;timestamp;pressure;altitude;pressure_sealevel;temperature;humidity
50518;BME280;37075;44.084;2.962;2024-03-23T00:54:14;97906.75;;;10.05;56.48
50518;BME280;37075;44.084;2.962;2024-03-23T00:57:00;97909.34;;;10.02;56.43
50518;BME280;37075;44.084;2.962;2024-03-23T00:59:46;97913.19;;;10.01;56.53
50518;BME280;37075;44.084;2.962;2024-03-23T01:02:32;97912.25;;;9.97;56.63
50518;BME280;37075;44.084;2.962;2024-03-23T01:05:17;97918.34;;;9.94;56.78
50518;BME280;37075;44.084;2.962;2024-03-23T01:08:04;97917.41;;;9.89;56.78
50518;BME280;37075;44.084;2.962;2024-03-23T01:10:55;97916.41;;;9.85;56.91
50518;BME280;37075;44.084;2.962;2024-03-23T01:13:42;97908.56;;;9.84;57.00
50518;BME280;37075;44.084;2.962;2024-03-23T01:16:27;97910.03;;;9.81;57.14
50518;BME280;37075;44.084;2.962;2024-03-23T01:19:13;97917.72;;;9.79;57.27
50518;BME280;37075;44.084;2.962;2024-03-23T01:21:58;97915.31;;;9.78;57.28
50518;BME280;37075;44.084;2.962;2024-03-23T01:24:45;97920.63;;;9.74;57.07
50518;BME280;37075;44.084;2.962;2024-03-23T01:27:32;97919.53;;;9.67;57.79
50518;BME280;37075;44.084;2.962;2024-03-23T01:30:18;97919.84;;;9.65;57.73
50518;BME280;37075;44.084;2.962;2024-03-23T01:33:04;97921.75;;;9.65;57.77
50518;BME280;37075;44.084;2.962;2024-03-23T01:35:50;97921.25;;;9.63;57.83
50518;BME280;37075;44.084;2.962;2024-03-23T01:38:35;97931.69;;;9.61;57.94
50518;BME280;37075;44.084;2.962;2024-03-23T01:41:21;97929.28;;;9.59;58.06
50518;BME280;37075;44.084;2.962;2024-03-23T01:44:08;97926.06;;;9.57;58.34
50518;BME280;37075;44.084;2.962;2024-03-23T01:46:54;97931.53;;;9.57;58.39
50518;BME280;37075;44.084;2.962;2024-03-23T01:49:39;97929.91;;;9.56;59.07
50518;BME280;37075;44.084;2.962;2024-03-23T01:52:25;97943.22;;;9.57;59.03
50518;BME280;37075;44.084;2.962;2024-03-23T01:55:12;97930.41;;;9.58;59.39
50518;BME280;37075;44.084;2.962;2024-03-23T01:57:58;97933.28;;;9.62;59.70
50518;BME280;37075;44.084;2.962;2024-03-23T02:00:44;97934.59;;;9.64;59.77
50518;BME280;37075;44.084;2.962;2024-03-23T02:03:30;97924.16;;;9.66;59.92
50518;BME280;37075;44.084;2.962;2024-03-23T02:06:16;97928.97;;;9.69;60.01
50518;BME280;37075;44.084;2.962;2024-03-23T02:09:02;97935.38;;;9.73;60.05
50518;BME280;37075;44.084;2.962;2024-03-23T02:11:48;97947.06;;;9.74;60.66
50518;BME280;37075;44.084;2.962;2024-03-23T02:14:35;97937.91;;;9.78;60.55
50518;BME280;37075;44.084;2.962;2024-03-23T02:17:22;97941.91;;;9.81;60.59
50518;BME280;37075;44.084;2.962;2024-03-23T02:20:08;97933.41;;;9.82;60.97
50518;BME280;37075;44.084;2.962;2024-03-23T02:22:55;97921.22;;;9.88;60.97
50518;BME280;37075;44.084;2.962;2024-03-23T02:25:41;97924.13;;;9.92;61.16
50518;BME280;37075;44.084;2.962;2024-03-23T02:28:26;97938.69;;;9.96;61.21
50518;BME280;37075;44.084;2.962;2024-03-23T02:31:13;97946.88;;;9.96;61.54
50518;BME280;37075;44.084;2.962;2024-03-23T02:33:58;97952.47;;;10.00;61.70
50518;BME280;37075;44.084;2.962;2024-03-23T02:36:44;97949.88;;;10.03;61.76
50518;BME280;37075;44.084;2.962;2024-03-23T02:39:30;97945.72;;;10.06;61.64
50518;BME280;37075;44.084;2.962;2024-03-23T02:42:16;97956.44;;;10.11;61.69
50518;BME280;37075;44.084;2.962;2024-03-23T02:45:02;97969.91;;;10.16;61.94
50518;BME280;37075;44.084;2.962;2024-03-23T02:47:49;97970.88;;;10.20;62.10
50518;BME280;37075;44.084;2.962;2024-03-23T02:50:36;97972.63;;;10.25;61.75
50518;BME280;37075;44.084;2.962;2024-03-23T02:53:23;97950.66;;;10.30;61.83
50518;BME280;37075;44.084;2.962;2024-03-23T02:56:09;97955.44;;;10.33;61.86
50518;BME280;37075;44.084;2.962;2024-03-23T02:59:00;97956.41;;;10.37;61.83
50518;BME280;37075;44.084;2.962;2024-03-23T03:01:46;97962.81;;;10.41;61.86
50518;BME280;37075;44.084;2.962;2024-03-23T03:04:32;97964.88;;;10.44;62.00
50518;BME280;37075;44.084;2.962;2024-03-23T03:07:18;97973.22;;;10.47;61.92
50518;BME280;37075;44.084;2.962;2024-03-23T03:10:04;97965.50;;;10.49;61.94
50518;BME280;37075;44.084;2.962;2024-03-23T03:12:52;97978.47;;;10.53;62.09
50518;BME280;37075;44.084;2.962;2024-03-23T03:15:39;97978.97;;;10.55;62.15
50518;BME280;37075;44.084;2.962;2024-03-23T03:18:24;97964.19;;;10.56;62.16
50518;BME280;37075;44.084;2.962;2024-03-23T03:21:11;97966.13;;;10.55;62.39
50518;BME280;37075;44.084;2.962;2024-03-23T03:23:56;97973.97;;;10.57;62.35
50518;BME280;37075;44.084;2.962;2024-03-23T03:26:42;97974.31;;;10.55;62.22
50518;BME280;37075;44.084;2.962;2024-03-23T03:29:29;97961.47;;;10.56;62.37
50518;BME280;37075;44.084;2.962;2024-03-23T03:32:20;97956.00;;;10.56;62.14
50518;BME280;37075;44.084;2.962;2024-03-23T03:35:06;97960.66;;;10.55;62.29
50518;BME280;37075;44.084;2.962;2024-03-23T03:37:52;97971.09;;;10.53;62.23
50518;BME280;37075;44.084;2.962;2024-03-23T03:40:37;97970.16;;;10.49;62.59
50518;BME280;37075;44.084;2.962;2024-03-23T03:43:23;97973.22;;;10.47;62.50
50518;BME280;37075;44.084;2.962;2024-03-23T03:46:09;97965.38;;;10.46;62.62
50518;BME280;37075;44.084;2.962;2024-03-23T03:48:55;97966.81;;;10.43;62.65
50518;BME280;37075;44.084;2.962;2024-03-23T03:51:41;97960.09;;;10.41;62.43
50518;BME280;37075;44.084;2.962;2024-03-23T03:54:26;97968.56;;;10.39;62.35
50518;BME280;37075;44.084;2.962;2024-03-23T03:57:12;97969.22;;;10.36;62.44
50518;BME280;37075;44.084;2.962;2024-03-23T03:59:58;97966.81;;;10.35;62.27
50518;BME280;37075;44.084;2.962;2024-03-23T04:02:44;97972.47;;;10.30;62.21
50518;BME280;37075;44.084;2.962;2024-03-23T04:05:31;97966.53;;;10.28;62.23
50518;BME280;37075;44.084;2.962;2024-03-23T04:08:16;97948.09;;;10.25;62.09
50518;BME280;37075;44.084;2.962;2024-03-23T04:11:03;97939.78;;;10.21;61.99
50518;BME280;37075;44.084;2.962;2024-03-23T04:13:48;97930.63;;;10.17;62.08
50518;BME280;37075;44.084;2.962;2024-03-23T04:16:35;97942.16;;;10.14;62.03
50518;BME280;37075;44.084;2.962;2024-03-23T04:19:21;97942.34;;;10.09;61.95
50518;BME280;37075;44.084;2.962;2024-03-23T04:22:08;97949.56;;;10.05;62.05
50518;BME280;37075;44.084;2.962;2024-03-23T04:24:53;97946.53;;;9.98;62.22
50518;BME280;37075;44.084;2.962;2024-03-23T04:27:39;97936.63;;;9.93;62.34
50518;BME280;37075;44.084;2.962;2024-03-23T04:30:26;97950.09;;;9.89;62.06
50518;BME280;37075;44.084;2.962;2024-03-23T04:33:14;97953.09;;;9.88;61.89
50518;BME280;37075;44.084;2.962;2024-03-23T04:36:00;97964.66;;;9.85;61.74
50518;BME280;37075;44.084;2.962;2024-03-23T04:38:47;97974.28;;;9.82;61.82
50518;BME280;37075;44.084;2.962;2024-03-23T04:41:34;97985.34;;;9.77;61.88
50518;BME280;37075;44.084;2.962;2024-03-23T04:44:20;97980.38;;;9.71;63.33
50518;BME280;37075;44.084;2.962;2024-03-23T04:47:07;97999.13;;;9.64;67.30
50518;BME280;37075;44.084;2.962;2024-03-23T04:49:53;98004.09;;;9.79;69.45
50518;BME280;37075;44.084;2.962;2024-03-23T04:52:39;98001.34;;;10.05;70.63
50518;BME280;37075;44.084;2.962;2024-03-23T04:55:28;98003.44;;;10.25;70.05
50518;BME280;37075;44.084;2.962;2024-03-23T04:58:14;98017.50;;;10.44;69.13
50518;BME280;37075;44.084;2.962;2024-03-23T05:01:00;98020.63;;;10.64;69.42
50518;BME280;37075;44.084;2.962;2024-03-23T05:03:46;98013.66;;;10.84;68.88
50518;BME280;37075;44.084;2.962;2024-03-23T05:06:31;98027.56;;;10.99;68.13
50518;BME280;37075;44.084;2.962;2024-03-23T05:09:18;98032.31;;;11.11;67.75
50518;BME280;37075;44.084;2.962;2024-03-23T05:12:05;98040.94;;;11.22;67.11
50518;BME280;37075;44.084;2.962;2024-03-23T05:14:51;98044.41;;;11.31;66.77
50518;BME280;37075;44.084;2.962;2024-03-23T05:17:38;98035.56;;;11.34;66.14
50518;BME280;37075;44.084;2.962;2024-03-23T05:20:24;98036.81;;;11.36;66.06
50518;BME280;37075;44.084;2.962;2024-03-23T05:23:10;98048.97;;;11.48;65.99
50518;BME280;37075;44.084;2.962;2024-03-23T05:25:57;98046.53;;;11.55;65.80
50518;BME280;37075;44.084;2.962;2024-03-23T05:28:42;98071.03;;;11.63;65.33
50518;BME280;37075;44.084;2.962;2024-03-23T05:31:32;98063.59;;;11.72;63.82
50518;BME280;37075;44.084;2.962;2024-03-23T05:34:17;98067.25;;;11.77;63.76
50518;BME280;37075;44.084;2.962;2024-03-23T05:37:03;98077.81;;;11.87;63.28
50518;BME280;37075;44.084;2.962;2024-03-23T05:39:49;98096.28;;;11.90;62.60
50518;BME280;37075;44.084;2.962;2024-03-23T05:42:36;98098.69;;;11.91;61.73
50518;BME280;37075;44.084;2.962;2024-03-23T05:45:21;98105.06;;;11.95;60.31
50518;BME280;37075;44.084;2.962;2024-03-23T05:48:08;98110.03;;;12.02;60.35
50518;BME280;37075;44.084;2.962;2024-03-23T05:50:53;98118.72;;;12.04;60.33
50518;BME280;37075;44.084;2.962;2024-03-23T05:53:39;98120.63;;;12.03;60.18
50518;BME280;37075;44.084;2.962;2024-03-23T05:56:25;98125.31;;;12.03;60.15
50518;BME280;37075;44.084;2.962;2024-03-23T05:59:12;98118.03;;;12.07;59.75
50518;BME280;37075;44.084;2.962;2024-03-23T06:01:58;98119.75;;;12.12;59.98
50518;BME280;37075;44.084;2.962;2024-03-23T06:04:45;98123.97;;;12.09;60.41
50518;BME280;37075;44.084;2.962;2024-03-23T06:07:31;98138.31;;;12.06;60.58
50518;BME280;37075;44.084;2.962;2024-03-23T06:10:16;98128.84;;;12.03;61.15
50518;BME280;37075;44.084;2.962;2024-03-23T06:13:02;98138.19;;;12.02;61.52
50518;BME280;37075;44.084;2.962;2024-03-23T06:15:49;98133.03;;;12.01;61.46
50518;BME280;37075;44.084;2.962;2024-03-23T06:18:35;98144.44;;;12.03;61.64
50518;BME280;37075;44.084;2.962;2024-03-23T06:21:21;98147.97;;;12.03;61.66
50518;BME280;37075;44.084;2.962;2024-03-23T06:24:08;98143.78;;;12.06;61.60
50518;BME280;37075;44.084;2.962;2024-03-23T06:26:53;98154.56;;;12.02;62.33
50518;BME280;37075;44.084;2.962;2024-03-23T06:29:39;98161.31;;;12.05;61.76
50518;BME280;37075;44.084;2.962;2024-03-23T06:32:27;98163.25;;;12.04;61.69
50518;BME280;37075;44.084;2.962;2024-03-23T06:35:13;98166.13;;;12.08;61.54
50518;BME280;37075;44.084;2.962;2024-03-23T06:37:58;98165.78;;;12.10;61.35
50518;BME280;37075;44.084;2.962;2024-03-23T06:40:45;98173.38;;;12.04;61.62
50518;BME280;37075;44.084;2.962;2024-03-23T06:43:32;98163.25;;;12.04;61.86
50518;BME280;37075;44.084;2.962;2024-03-23T06:46:18;98169.38;;;12.01;61.83
50518;BME280;37075;44.084;2.962;2024-03-23T06:49:04;98179.06;;;11.99;62.15
50518;BME280;37075;44.084;2.962;2024-03-23T06:51:51;98180.66;;;12.00;61.99
50518;BME280;37075;44.084;2.962;2024-03-23T06:54:37;98174.06;;;12.01;61.69
50518;BME280;37075;44.084;2.962;2024-03-23T06:57:22;98171.31;;;12.01;61.90
50518;BME280;37075;44.084;2.962;2024-03-23T07:00:08;98173.97;;;12.10;61.57
50518;BME280;37075;44.084;2.962;2024-03-23T07:02:55;98179.91;;;12.12;61.55
50518;BME280;37075;44.084;2.962;2024-03-23T07:05:42;98181.97;;;12.15;61.46
50518;BME280;37075;44.084;2.962;2024-03-23T07:08:27;98175.38;;;12.16;61.43
50518;BME280;37075;44.084;2.962;2024-03-23T07:11:18;98185.66;;;12.19;61.56
50518;BME280;37075;44.084;2.962;2024-03-23T07:14:04;98176.19;;;12.16;61.96
50518;BME280;37075;44.084;2.962;2024-03-23T07:16:50;98183.53;;;12.24;61.82
50518;BME280;37075;44.084;2.962;2024-03-23T07:19:35;98178.19;;;12.28;61.56
50518;BME280;37075;44.084;2.962;2024-03-23T07:22:23;98190.88;;;12.32;61.59
50518;BME280;37075;44.084;2.962;2024-03-23T07:25:08;98188.59;;;12.34;61.39
50518;BME280;37075;44.084;2.962;2024-03-23T07:27:54;98194.22;;;12.38;61.39
50518;BME280;37075;44.084;2.962;2024-03-23T07:30:40;98196.13;;;12.38;61.45
50518;BME280;37075;44.084;2.962;2024-03-23T07:33:26;98201.22;;;12.27;61.93
50518;BME280;37075;44.084;2.962;2024-03-23T07:36:11;98194.94;;;12.26;61.94
50518;BME280;37075;44.084;2.962;2024-03-23T07:38:58;98198.34;;;12.23;62.18
50518;BME280;37075;44.084;2.962;2024-03-23T07:41:44;98205.09;;;12.26;62.56
50518;BME280;37075;44.084;2.962;2024-03-23T07:44:31;98200.88;;;12.28;62.46
50518;BME280;37075;44.084;2.962;2024-03-23T07:47:16;98202.28;;;12.34;62.48
50518;BME280;37075;44.084;2.962;2024-03-23T07:50:01;98203.09;;;12.35;62.58
50518;BME280;37075;44.084;2.962;2024-03-23T07:52:47;98203.09;;;12.35;62.39
50518;BME280;37075;44.084;2.962;2024-03-23T07:55:34;98206.06;;;12.42;62.21
50518;BME280;37075;44.084;2.962;2024-03-23T07:58:20;98204.59;;;12.45;62.46
50518;BME280;37075;44.084;2.962;2024-03-23T08:01:06;98201.88;;;12.45;62.53
50518;BME280;37075;44.084;2.962;2024-03-23T08:03:53;98213.94;;;12.44;63.13
50518;BME280;37075;44.084;2.962;2024-03-23T08:06:38;98217.16;;;12.46;63.03
50518;BME280;37075;44.084;2.962;2024-03-23T08:09:24;98211.56;;;12.42;63.09
50518;BME280;37075;44.084;2.962;2024-03-23T08:12:11;98217.03;;;12.42;63.61
50518;BME280;37075;44.084;2.962;2024-03-23T08:14:57;98207.81;;;12.47;63.85
50518;BME280;37075;44.084;2.962;2024-03-23T08:17:42;98213.63;;;12.45;63.86
50518;BME280;37075;44.084;2.962;2024-03-23T08:20:28;98213.91;;;12.52;63.39
50518;BME280;37075;44.084;2.962;2024-03-23T08:23:13;98217.81;;;12.63;62.97
50518;BME280;37075;44.084;2.962;2024-03-23T08:26:00;98216.28;;;12.75;63.00
50518;BME280;37075;44.084;2.962;2024-03-23T08:28:46;98215.00;;;12.72;62.85
50518;BME280;37075;44.084;2.962;2024-03-23T08:31:33;98215.28;;;12.79;62.57
50518;BME280;37075;44.084;2.962;2024-03-23T08:34:18;98223.53;;;12.91;62.66
50518;BME280;37075;44.084;2.962;2024-03-23T08:37:04;98225.38;;;13.00;62.19
50518;BME280;37075;44.084;2.962;2024-03-23T08:39:50;98225.38;;;13.00;62.08
50518;BME280;37075;44.084;2.962;2024-03-23T08:42:37;98206.81;;;13.05;61.79
50518;BME280;37075;44.084;2.962;2024-03-23T08:45:25;98210.59;;;13.13;61.68
50518;BME280;37075;44.084;2.962;2024-03-23T08:48:11;98213.22;;;13.30;60.96
50518;BME280;37075;44.084;2.962;2024-03-23T08:51:00;98215.72;;;13.47;60.64
50518;BME280;37075;44.084;2.962;2024-03-23T08:53:46;98239.06;;;13.53;60.15
50518;BME280;37075;44.084;2.962;2024-03-23T08:56:31;98217.66;;;13.47;59.63
50518;BME280;37075;44.084;2.962;2024-03-23T08:59:17;98213.91;;;13.39;59.79
50518;BME280;37075;44.084;2.962;2024-03-23T09:02:05;98219.16;;;13.44;59.45
50518;BME280;37075;44.084;2.962;2024-03-23T09:04:50;98209.91;;;13.49;59.69
50518;BME280;37075;44.084;2.962;2024-03-23T09:07:36;98209.94;;;13.61;59.58
50518;BME280;37075;44.084;2.962;2024-03-23T09:10:21;98210.28;;;13.72;57.47
50518;BME280;37075;44.084;2.962;2024-03-23T09:13:07;98215.41;;;13.73;56.74
50518;BME280;37075;44.084;2.962;2024-03-23T09:15:54;98219.66;;;13.83;54.82
50518;BME280;37075;44.084;2.962;2024-03-23T09:18:42;98208.91;;;13.90;54.66
50518;BME280;37075;44.084;2.962;2024-03-23T09:21:30;98211.09;;;13.97;53.91
50518;BME280;37075;44.084;2.962;2024-03-23T09:24:16;98213.72;;;14.05;52.92
50518;BME280;37075;44.084;2.962;2024-03-23T09:27:02;98218.06;;;14.06;53.32
50518;BME280;37075;44.084;2.962;2024-03-23T09:29:49;98213.69;;;14.17;52.01
50518;BME280;37075;44.084;2.962;2024-03-23T09:32:34;98222.03;;;14.21;50.98
50518;BME280;37075;44.084;2.962;2024-03-23T09:35:21;98220.44;;;14.20;49.65
50518;BME280;37075;44.084;2.962;2024-03-23T09:38:06;98220.09;;;14.22;48.62
50518;BME280;37075;44.084;2.962;2024-03-23T09:40:53;98225.00;;;14.28;48.25
50518;BME280;37075;44.084;2.962;2024-03-23T09:43:39;98226.25;;;14.31;47.35
50518;BME280;37075;44.084;2.962;2024-03-23T09:46:25;98239.41;;;14.37;48.99
50518;BME280;37075;44.084;2.962;2024-03-23T09:49:10;98242.03;;;14.34;48.13
50518;BME280;37075;44.084;2.962;2024-03-23T09:51:58;98249.22;;;14.26;46.75
50518;BME280;37075;44.084;2.962;2024-03-23T09:54:43;98236.34;;;14.14;47.46
50518;BME280;37075;44.084;2.962;2024-03-23T09:57:29;98252.56;;;14.19;47.04
50518;BME280;37075;44.084;2.962;2024-03-23T10:00:15;98252.34;;;14.12;47.02
50518;BME280;37075;44.084;2.962;2024-03-23T10:03:02;98234.06;;;14.16;46.52
50518;BME280;37075;44.084;2.962;2024-03-23T10:05:47;98247.75;;;14.16;46.51
50518;BME280;37075;44.084;2.962;2024-03-23T10:08:34;98239.44;;;14.13;46.10
50518;BME280;37075;44.084;2.962;2024-03-23T10:11:20;98253.38;;;14.08;45.82
50518;BME280;37075;44.084;2.962;2024-03-23T10:14:07;98265.81;;;13.93;45.83
50518;BME280;37075;44.084;2.962;2024-03-23T10:16:53;98265.03;;;13.80;45.17
50518;BME280;37075;44.084;2.962;2024-03-23T10:19:40;98255.31;;;13.83;45.85
50518;BME280;37075;44.084;2.962;2024-03-23T10:22:27;98253.03;;;13.85;45.31
50518;BME280;37075;44.084;2.962;2024-03-23T10:25:14;98250.97;;;13.82;44.46
50518;BME280;37075;44.084;2.962;2024-03-23T10:28:01;98254.38;;;13.79;44.11
50518;BME280;37075;44.084;2.962;2024-03-23T10:30:46;98239.56;;;13.80;44.32
50518;BME280;37075;44.084;2.962;2024-03-23T10:33:32;98246.41;;;13.86;44.32
50518;BME280;37075;44.084;2.962;2024-03-23T10:36:19;98248.22;;;13.94;43.66
50518;BME280;37075;44.084;2.962;2024-03-23T10:39:07;98254.63;;;13.86;43.14
50518;BME280;37075;44.084;2.962;2024-03-23T10:41:56;98244.81;;;13.85;44.46
50518;BME280;37075;44.084;2.962;2024-03-23T10:44:42;98249.13;;;13.86;43.89
50518;BME280;37075;44.084;2.962;2024-03-23T10:47:28;98244.56;;;13.90;42.75
50518;BME280;37075;44.084;2.962;2024-03-23T10:50:14;98232.09;;;13.93;42.24
50518;BME280;37075;44.084;2.962;2024-03-23T10:53:00;98248.22;;;13.94;42.05
50518;BME280;37075;44.084;2.962;2024-03-23T10:55:47;98237.00;;;13.99;42.96
50518;BME280;37075;44.084;2.962;2024-03-23T10:58:38;98235.53;;;14.02;41.83
50518;BME280;37075;44.084;2.962;2024-03-23T11:01:24;98220.78;;;13.94;41.83
50518;BME280;37075;44.084;2.962;2024-03-23T11:04:10;98229.13;;;13.98;42.25
50518;BME280;37075;44.084;2.962;2024-03-23T11:07:30;98231.63;;;14.03;41.54
50518;BME280;37075;44.084;2.962;2024-03-23T11:10:25;98225.59;;;14.09;39.94
50518;BME280;37075;44.084;2.962;2024-03-23T11:13:23;98236.09;;;14.19;41.08
50518;BME280;37075;44.084;2.962;2024-03-23T11:16:15;98217.59;;;14.16;38.46
50518;BME280;37075;44.084;2.962;2024-03-23T11:19:35;98215.88;;;14.12;38.34
50518;BME280;37075;44.084;2.962;2024-03-23T11:22:41;98216.56;;;14.09;38.78
50518;BME280;37075;44.084;2.962;2024-03-23T11:25:28;98216.69;;;14.12;37.40
50518;BME280;37075;44.084;2.962;2024-03-23T11:28:15;98219.19;;;14.17;38.53
50518;BME280;37075;44.084;2.962;2024-03-23T11:31:00;98212.31;;;14.24;38.86
50518;BME280;37075;44.084;2.962;2024-03-23T11:34:03;98208.19;;;14.30;38.53
50518;BME280;37075;44.084;2.962;2024-03-23T11:36:50;98207.50;;;14.33;38.75
50518;BME280;37075;44.084;2.962;2024-03-23T11:39:36;98208.16;;;14.42;38.60
50518;BME280;37075;44.084;2.962;2024-03-23T11:42:21;98201.31;;;14.48;38.21
50518;BME280;37075;44.084;2.962;2024-03-23T11:45:08;98186.44;;;14.49;38.21
50518;BME280;37075;44.084;2.962;2024-03-23T11:48:04;98198.78;;;14.55;36.04
50518;BME280;37075;44.084;2.962;2024-03-23T11:50:57;98196.72;;;14.52;35.88
50518;BME280;37075;44.084;2.962;2024-03-23T11:53:43;98184.25;;;14.55;35.50
50518;BME280;37075;44.084;2.962;2024-03-23T11:56:29;98208.50;;;14.53;35.62
50518;BME280;37075;44.084;2.962;2024-03-23T11:59:30;98201.06;;;14.53;34.13
50518;BME280;37075;44.084;2.962;2024-03-23T12:02:18;98200.97;;;14.49;35.49
50518;BME280;37075;44.084;2.962;2024-03-23T12:05:14;98210.09;;;14.54;36.28
50518;BME280;37075;44.084;2.962;2024-03-23T12:08:24;98192.63;;;14.58;35.42
50518;BME280;37075;44.084;2.962;2024-03-23T12:11:12;98200.16;;;14.61;35.48
50518;BME280;37075;44.084;2.962;2024-03-23T12:13:59;98182.88;;;14.61;34.63
50518;BME280;37075;44.084;2.962;2024-03-23T12:16:45;98197.31;;;14.58;34.64
50518;BME280;37075;44.084;2.962;2024-03-23T12:19:31;98188.25;;;14.57;34.40
50518;BME280;37075;44.084;2.962;2024-03-23T12:22:20;98186.31;;;14.58;34.23
50518;BME280;37075;44.084;2.962;2024-03-23T12:25:07;98180.59;;;14.63;33.66
50518;BME280;37075;44.084;2.962;2024-03-23T12:27:53;98196.25;;;14.62;31.28
50518;BME280;37075;44.084;2.962;2024-03-23T12:30:39;98179.69;;;14.59;32.56
50518;BME280;37075;44.084;2.962;2024-03-23T12:33:26;98196.56;;;14.73;33.19
50518;BME280;37075;44.084;2.962;2024-03-23T12:36:11;98185.31;;;14.78;33.53
50518;BME280;37075;44.084;2.962;2024-03-23T12:38:58;98172.28;;;14.75;33.33
50518;BME280;37075;44.084;2.962;2024-03-23T12:41:44;98176.28;;;14.77;34.07
50518;BME280;37075;44.084;2.962;2024-03-23T12:44:31;98155.09;;;14.78;32.02
50518;BME280;37075;44.084;2.962;2024-03-23T12:47:16;98160.06;;;14.72;30.86
50518;BME280;37075;44.084;2.962;2024-03-23T12:50:03;98159.41;;;14.63;31.41
50518;BME280;37075;44.084;2.962;2024-03-23T12:52:48;98161.81;;;14.65;30.49
50518;BME280;37075;44.084;2.962;2024-03-23T12:55:35;98146.84;;;14.62;29.82
50518;BME280;37075;44.084;2.962;2024-03-23T12:58:22;98163.84;;;14.68;29.96
50518;BME280;37075;44.084;2.962;2024-03-23T13:01:08;98156.41;;;14.68;29.97
50518;BME280;37075;44.084;2.962;2024-03-23T13:03:54;98132.25;;;14.74;30.55
50518;BME280;37075;44.084;2.962;2024-03-23T13:06:40;98132.44;;;14.81;30.27
50518;BME280;37075;44.084;2.962;2024-03-23T13:09:25;98127.59;;;14.90;30.22
50518;BME280;37075;44.084;2.962;2024-03-23T13:12:12;98122.56;;;15.08;30.33
50518;BME280;37075;44.084;2.962;2024-03-23T13:14:59;98124.81;;;15.18;30.22
50518;BME280;37075;44.084;2.962;2024-03-23T13:17:45;98132.06;;;15.26;29.38
50518;BME280;37075;44.084;2.962;2024-03-23T13:20:30;98108.66;;;15.32;29.32
50518;BME280;37075;44.084;2.962;2024-03-23T13:23:16;98100.16;;;15.37;29.68
50518;BME280;37075;44.084;2.962;2024-03-23T13:26:02;98099.53;;;15.60;30.47
50518;BME280;37075;44.084;2.962;2024-03-23T13:28:49;98110.00;;;15.70;30.10
50518;BME280;37075;44.084;2.962;2024-03-23T13:31:36;98091.97;;;15.88;28.79
50518;BME280;37075;44.084;2.962;2024-03-23T13:34:22;98090.44;;;16.10;28.98
50518;BME280;37075;44.084;2.962;2024-03-23T13:37:08;98106.19;;;16.29;28.03
50518;BME280;37075;44.084;2.962;2024-03-23T13:39:54;98089.19;;;16.43;27.86
50518;BME280;37075;44.084;2.962;2024-03-23T13:42:40;98085.16;;;16.59;27.57
50518;BME280;37075;44.084;2.962;2024-03-23T13:45:26;98086.69;;;16.76;27.28
50518;BME280;37075;44.084;2.962;2024-03-23T13:48:13;98069.81;;;17.01;27.23
50518;BME280;37075;44.084;2.962;2024-03-23T13:50:59;98059.44;;;17.40;27.62
50518;BME280;37075;44.084;2.962;2024-03-23T13:53:44;98047.16;;;17.86;27.94
50518;BME280;37075;44.084;2.962;2024-03-23T13:56:31;98037.66;;;18.14;27.19
50518;BME280;37075;44.084;2.962;2024-03-23T13:59:17;98036.44;;;18.45;26.47
50518;BME280;37075;44.084;2.962;2024-03-23T14:02:03;98055.94;;;18.59;25.65
50518;BME280;37075;44.084;2.962;2024-03-23T14:04:49;98032.06;;;18.74;26.31
50518;BME280;37075;44.084;2.962;2024-03-23T14:07:36;98040.22;;;19.00;25.82
50518;BME280;37075;44.084;2.962;2024-03-23T14:10:21;98025.31;;;19.16;25.22
50518;BME280;37075;44.084;2.962;2024-03-23T14:13:07;98023.09;;;19.32;25.35
50518;BME280;37075;44.084;2.962;2024-03-23T14:15:53;98026.72;;;19.43;25.09
50518;BME280;37075;44.084;2.962;2024-03-23T14:18:39;98009.94;;;19.73;25.41
50518;BME280;37075;44.084;2.962;2024-03-23T14:21:26;98032.19;;;19.91;24.97
50518;BME280;37075;44.084;2.962;2024-03-23T14:24:12;98006.91;;;20.03;24.43
50518;BME280;37075;44.084;2.962;2024-03-23T14:26:58;98012.13;;;20.12;24.55
50518;BME280;37075;44.084;2.962;2024-03-23T14:29:48;98004.69;;;20.30;24.22
50518;BME280;37075;44.084;2.962;2024-03-23T14:32:33;98001.47;;;20.28;23.79
50518;BME280;37075;44.084;2.962;2024-03-23T14:35:21;98007.09;;;20.42;24.35
50518;BME280;37075;44.084;2.962;2024-03-23T14:38:09;97990.91;;;20.58;23.91
50518;BME280;37075;44.084;2.962;2024-03-23T14:40:57;98011.91;;;20.59;23.42
50518;BME280;37075;44.084;2.962;2024-03-23T14:43:44;98002.41;;;20.64;23.41
50518;BME280;37075;44.084;2.962;2024-03-23T14:46:31;98006.38;;;20.77;22.93
50518;BME280;37075;44.084;2.962;2024-03-23T14:49:18;98008.00;;;20.89;22.89
50518;BME280;37075;44.084;2.962;2024-03-23T14:52:04;97997.28;;;20.98;23.16
50518;BME280;37075;44.084;2.962;2024-03-23T14:54:51;97984.25;;;21.09;22.69
50518;BME280;37075;44.084;2.962;2024-03-23T14:57:37;97989.78;;;21.23;23.69
50518;BME280;37075;44.084;2.962;2024-03-23T15:00:23;97999.28;;;21.44;23.82
50518;BME280;37075;44.084;2.962;2024-03-23T15:03:09;97979.47;;;21.42;22.81
50518;BME280;37075;44.084;2.962;2024-03-23T15:05:56;97997.72;;;21.25;22.74
50518;BME280;37075;44.084;2.962;2024-03-23T15:08:42;97981.06;;;21.18;21.95
50518;BME280;37075;44.084;2.962;2024-03-23T15:11:29;97971.50;;;21.54;22.17
50518;BME280;37075;44.084;2.962;2024-03-23T15:14:17;97973.00;;;21.91;21.71
50518;BME280;37075;44.084;2.962;2024-03-23T15:17:02;97970.94;;;22.17;21.08
50518;BME280;37075;44.084;2.962;2024-03-23T15:19:52;97953.50;;;22.09;19.93
50518;BME280;37075;44.084;2.962;2024-03-23T15:22:38;97979.31;;;22.06;20.39
50518;BME280;37075;44.084;2.962;2024-03-23T15:25:24;97966.53;;;22.26;20.96
50518;BME280;37075;44.084;2.962;2024-03-23T15:28:11;97973.94;;;22.51;20.95
50518;BME280;37075;44.084;2.962;2024-03-23T15:30:59;97959.31;;;22.39;20.57
50518;BME280;37075;44.084;2.962;2024-03-23T15:33:44;97948.56;;;22.45;21.09
50518;BME280;37075;44.084;2.962;2024-03-23T15:36:31;97946.00;;;22.72;21.32
50518;BME280;37075;44.084;2.962;2024-03-23T15:39:16;97934.44;;;23.25;21.04